• Join FlightAware (Why Join?)
  • Login
  • US Flag 
07:43PM EDT


 

Airport Tracker/Info


-or-


 

Live Flight TrackerFlight Track Log ✈ BLS384 ✈ 22-Jan-2014 ✈ CYYB - CYOW

Flight Track Log - Related Links

Times and Time Zones

All times are in EST time to prevent confusion due to time zone crossing. See the BLS384 flight status page for this flight to view local times or setup timezone preferences in your user account.

Time Position Orientation Groundspeed Altitude Reporting Facility
EST Latitude Longitude Course Direction KTS MPH feet Rate Location/Type
07:28PM 46.4000 -79.4167 54° Northeast 160 184 5,600  Level Montreal Center
07:29PM 46.4000 -79.3500 90° East 180 207 8,100 2,400 Climbing Montreal Center
07:30PM 46.3667 -79.2667 120° Southeast 200 230 10,500 1,980 Climbing Montreal Center
07:31PM 46.3500 -79.2000 110° East 220 253 12,100 1,560 Climbing Montreal Center
07:32PM 46.3333 -79.1000 104° East 230 265 13,700 1,320 Climbing Montreal Center
07:33PM 46.3000 -79.0000 116° Southeast 240 276 14,800 1,200 Climbing Montreal Center
07:34PM 46.2833 -78.9000 104° East 250 288 16,100 1,200 Climbing Montreal Center
07:35PM 46.2667 -78.8000 104° East 260 299 17,200 1,020 Climbing Montreal Center
07:36PM 46.2500 -78.7000 104° East 260 299 18,200 840 Climbing Montreal Center
07:37PM 46.2167 -78.6167 120° Southeast 270 311 18,900 360 Climbing Montreal Center
07:38PM 46.2000 -78.5167 104° East 280 322 19,000  Climbing Montreal Center
07:39PM 46.1667 -78.3833 110° East 290 334 19,000  Level Montreal Center
07:40PM 46.1333 -78.2667 112° Southeast 300 345 19,000  Level Montreal Center
07:41PM 46.1167 -78.1500 102° East 300 345 19,000 -60 Level Montreal Center
07:42PM 46.1000 -78.0500 103° East 300 345 18,900  Descending Montreal Center
07:43PM 46.0833 -77.9333 102° East 300 345 19,000  Climbing Montreal Center
07:44PM 46.0500 -77.8000 110° East 300 345 19,000  Level Montreal Center
07:45PM 46.0167 -77.7000 116° Southeast 300 345 19,000  Level Montreal Center
07:46PM 45.9833 -77.5833 112° Southeast 300 345 19,000  Level Montreal Center
07:47PM 45.9500 -77.4667 112° Southeast 300 345 19,000  Level Montreal Center
07:48PM 45.9167 -77.3333 110° East 310 357 19,000  Level Montreal Center
07:49PM 45.8833 -77.2500 120° Southeast 310 357 19,000  Level Montreal Center
07:50PM 45.8500 -77.1167 110° East 300 345 19,000  Level Montreal Center
07:51PM 45.8167 -77.0000 112° Southeast 300 345 19,000 -60 Level Montreal Center
07:52PM 45.7833 -76.9000 116° Southeast 310 357 18,900 -60 Descending Montreal Center
07:53PM 45.7500 -76.7833 112° Southeast 300 345 18,900 -600 Level Montreal Center
07:54PM 45.7167 -76.6667 112° Southeast 310 357 17,800 -1,380 Descending Montreal Center
07:55PM 45.7167 -76.5500 90° East 320 368 16,200 -1,800 Descending Montreal Center
07:56PM 45.6833 -76.4167 110° East 320 368 14,200 -1,800 Descending Montreal Center
07:57PM 45.6667 -76.3000 102° East 310 357 12,700 -1,500 Descending Montreal Center
07:58PM 45.6333 -76.2000 115° Southeast 290 334 11,200 -1,560 Descending Montreal Center
07:59PM 45.6000 -76.0833 112° Southeast 280 322 9,600 -1,440 Descending Montreal Center
08:00PM 45.5667 -76.0000 120° Southeast 270 311 8,400 -1,140 Descending Montreal Center
08:01PM 45.5500 -75.9000 103° East 270 311 7,400 -900 Descending Montreal Center
08:02PM 45.5167 -75.8000 115° Southeast 260 299 6,700 -660 Descending Montreal Center
08:03PM 45.5000 -75.7000 103° East 240 276 6,100 -780 Descending Montreal Center
08:04PM 45.4833 -75.6333 110° East 200 230 5,200 -1,080 Descending Montreal Center
08:05PM 45.4333 -75.5667 137° Southeast 190 219 4,000 -1,140 Descending Montreal Center
08:06PM 45.4000 -75.5167 134° Southeast 170 196 3,000 -840 Descending Montreal Center
08:07PM 45.3500 -75.5333 193° South 170 196 2,400 -780 Descending Montreal Center
08:08PM 45.3333 -75.5833 245° Southwest 150 173 1,500 -900 Descending Montreal Center
08:09PM 45.3167 -75.6333 245° Southwest 120 138 700 -600 Descending Montreal Center
08:10PM 45.3000 -75.6667 235° Southwest 90 104 400 -300 Descending Montreal Center